Terminal Aerodrome Forecast
Issued by NWS

Home | Current Version | Previous Version | Text Only | Print | Product List | Glossary On
Versions: 1 2 3 4 5 6 7 8 9 10 11 12 13 14 15 16
000
FTUS45 KABQ 052300 RRA
TAFFMN
TAF
KFMN 052340Z 0600/0624 25010KT P6SM SCT060 BKN120
      TEMPO 0600/0602 VRB12G20KT -SHRA BKN040 OVC090
     FM060200 24010KT P6SM VCSH SCT050 BKN080
      TEMPO 0609/0613 5SM BR OVC025
     FM061500 25009KT P6SM BKN040
     FM061800 24012G20KT P6SM VCSH BKN060=

USA.gov is the U.S. government's official web portal to all federal, state and local government web resources and services.